sensor_id;sensor_type;location;lat;lon;timestamp;pressure;altitude;pressure_sealevel;temperature
18713;BMP280;9485;49.386;8.674;2023-02-28T00:01:16;101364.84;;;3.87
18713;BMP280;9485;49.386;8.674;2023-02-28T00:06:38;101371.69;;;3.86
18713;BMP280;9485;49.386;8.674;2023-02-28T00:11:59;101356.59;;;3.80
18713;BMP280;9485;49.386;8.674;2023-02-28T00:17:22;101357.91;;;3.75
18713;BMP280;9485;49.386;8.674;2023-02-28T00:22:47;101369.56;;;3.70
18713;BMP280;9485;49.386;8.674;2023-02-28T00:28:08;101328.50;;;3.48
18713;BMP280;9485;49.386;8.674;2023-02-28T00:33:29;101362.38;;;3.69
18713;BMP280;9485;49.386;8.674;2023-02-28T00:39:44;101352.66;;;3.58
18713;BMP280;9485;49.386;8.674;2023-02-28T00:45:54;101361.75;;;3.62
18713;BMP280;9485;49.386;8.674;2023-02-28T00:51:17;101365.75;;;3.61
18713;BMP280;9485;49.386;8.674;2023-02-28T00:56:38;101369.75;;;3.60
18713;BMP280;9485;49.386;8.674;2023-02-28T01:02:00;101350.41;;;3.50
18713;BMP280;9485;49.386;8.674;2023-02-28T01:07:22;101355.91;;;3.53
18713;BMP280;9485;49.386;8.674;2023-02-28T01:12:45;101358.38;;;3.51
18713;BMP280;9485;49.386;8.674;2023-02-28T01:18:06;101361.22;;;3.48
18713;BMP280;9485;49.386;8.674;2023-02-28T01:23:26;101366.13;;;3.40
18713;BMP280;9485;49.386;8.674;2023-02-28T01:28:51;101364.59;;;3.36
18713;BMP280;9485;49.386;8.674;2023-02-28T01:34:12;101363.88;;;3.32
18713;BMP280;9485;49.386;8.674;2023-02-28T01:39:33;101373.47;;;3.31
18713;BMP280;9485;49.386;8.674;2023-02-28T01:45:18;101353.56;;;3.29
18713;BMP280;9485;49.386;8.674;2023-02-28T01:50:44;101352.03;;;3.24
18713;BMP280;9485;49.386;8.674;2023-02-28T01:56:08;101349.75;;;3.19
18713;BMP280;9485;49.386;8.674;2023-02-28T02:01:31;101323.72;;;3.03
18713;BMP280;9485;49.386;8.674;2023-02-28T02:06:54;101349.75;;;3.19
18713;BMP280;9485;49.386;8.674;2023-02-28T02:12:28;101341.44;;;3.16
18713;BMP280;9485;49.386;8.674;2023-02-28T02:18:03;101337.50;;;3.13
18713;BMP280;9485;49.386;8.674;2023-02-28T02:30:43;101342.28;;;3.13
18713;BMP280;9485;49.386;8.674;2023-02-28T02:36:12;101331.19;;;3.09
18713;BMP280;9485;49.386;8.674;2023-02-28T02:41:41;101330.00;;;3.07
18713;BMP280;9485;49.386;8.674;2023-02-28T02:47:12;101334.03;;;3.06
18713;BMP280;9485;49.386;8.674;2023-02-28T02:52:42;101333.59;;;3.07
18713;BMP280;9485;49.386;8.674;2023-02-28T02:58:12;101326.88;;;3.05
18713;BMP280;9485;49.386;8.674;2023-02-28T03:03:36;101325.72;;;3.02
18713;BMP280;9485;49.386;8.674;2023-02-28T03:09:00;101332.13;;;2.99
18713;BMP280;9485;49.386;8.674;2023-02-28T03:14:39;101327.41;;;2.96
18713;BMP280;9485;49.386;8.674;2023-02-28T03:20:16;101311.50;;;2.94
18713;BMP280;9485;49.386;8.674;2023-02-28T03:25:54;101315.94;;;2.91
18713;BMP280;9485;49.386;8.674;2023-02-28T03:31:25;101307.31;;;2.82
18713;BMP280;9485;49.386;8.674;2023-02-28T03:36:51;101323.22;;;2.85
18713;BMP280;9485;49.386;8.674;2023-02-28T03:42:19;101325.19;;;2.85
18713;BMP280;9485;49.386;8.674;2023-02-28T03:47:50;101324.47;;;2.81
18713;BMP280;9485;49.386;8.674;2023-02-28T03:53:18;101322.91;;;2.80
18713;BMP280;9485;49.386;8.674;2023-02-28T03:58:47;101330.50;;;2.76
18713;BMP280;9485;49.386;8.674;2023-02-28T04:04:10;101342.16;;;2.71
18713;BMP280;9485;49.386;8.674;2023-02-28T04:09:32;101327.44;;;2.70
18713;BMP280;9485;49.386;8.674;2023-02-28T04:14:55;101328.25;;;2.67
18713;BMP280;9485;49.386;8.674;2023-02-28T04:20:16;101328.69;;;2.66
18713;BMP280;9485;49.386;8.674;2023-02-28T04:25:37;101329.13;;;2.64
18713;BMP280;9485;49.386;8.674;2023-02-28T04:31:04;101319.56;;;2.62
18713;BMP280;9485;49.386;8.674;2023-02-28T04:36:25;101318.38;;;2.63
18713;BMP280;9485;49.386;8.674;2023-02-28T04:41:46;101322.75;;;2.64
18713;BMP280;9485;49.386;8.674;2023-02-28T04:47:08;101325.53;;;2.64
18713;BMP280;9485;49.386;8.674;2023-02-28T04:52:29;101319.13;;;2.67
18713;BMP280;9485;49.386;8.674;2023-02-28T04:57:49;101325.00;;;2.72
18713;BMP280;9485;49.386;8.674;2023-02-28T05:03:11;101328.91;;;2.78
18713;BMP280;9485;49.386;8.674;2023-02-28T05:08:32;101338.78;;;2.83
18713;BMP280;9485;49.386;8.674;2023-02-28T05:13:53;101344.25;;;2.90
18713;BMP280;9485;49.386;8.674;2023-02-28T05:19:16;101344.13;;;2.96
18713;BMP280;9485;49.386;8.674;2023-02-28T05:24:37;101335.72;;;3.00
18713;BMP280;9485;49.386;8.674;2023-02-28T05:29:58;101345.59;;;3.04
18713;BMP280;9485;49.386;8.674;2023-02-28T05:35:26;101344.41;;;3.05
18713;BMP280;9485;49.386;8.674;2023-02-28T05:40:50;101345.97;;;3.06
18713;BMP280;9485;49.386;8.674;2023-02-28T05:46:13;101345.13;;;3.09
18713;BMP280;9485;49.386;8.674;2023-02-28T05:51:35;101345.53;;;3.08
18713;BMP280;9485;49.386;8.674;2023-02-28T05:56:59;101350.03;;;3.02
18713;BMP280;9485;49.386;8.674;2023-02-28T06:02:19;101349.25;;;3.01
18713;BMP280;9485;49.386;8.674;2023-02-28T06:07:41;101347.69;;;3.00
18713;BMP280;9485;49.386;8.674;2023-02-28T06:13:02;101367.97;;;3.01
18713;BMP280;9485;49.386;8.674;2023-02-28T06:18:24;101367.63;;;2.99
18713;BMP280;9485;49.386;8.674;2023-02-28T06:23:46;101361.31;;;2.95
18713;BMP280;9485;49.386;8.674;2023-02-28T06:29:07;101373.63;;;2.97
18713;BMP280;9485;49.386;8.674;2023-02-28T06:34:28;101369.19;;;3.00
18713;BMP280;9485;49.386;8.674;2023-02-28T06:39:51;101384.25;;;3.06
18713;BMP280;9485;49.386;8.674;2023-02-28T06:45:12;101377.09;;;3.05
18713;BMP280;9485;49.386;8.674;2023-02-28T06:50:33;101377.78;;;3.12
18713;BMP280;9485;49.386;8.674;2023-02-28T06:55:55;101363.50;;;3.07
18713;BMP280;9485;49.386;8.674;2023-02-28T07:01:16;101373.53;;;3.27
18713;BMP280;9485;49.386;8.674;2023-02-28T07:06:37;101387.63;;;3.43
18713;BMP280;9485;49.386;8.674;2023-02-28T07:12:00;101394.19;;;3.56
18713;BMP280;9485;49.386;8.674;2023-02-28T07:17:20;101400.72;;;3.69
18713;BMP280;9485;49.386;8.674;2023-02-28T07:22:41;101407.31;;;3.78
18713;BMP280;9485;49.386;8.674;2023-02-28T07:28:14;101421.34;;;3.98
18713;BMP280;9485;49.386;8.674;2023-02-28T07:33:37;101415.47;;;4.12
18713;BMP280;9485;49.386;8.674;2023-02-28T07:39:00;101406.53;;;4.20
18713;BMP280;9485;49.386;8.674;2023-02-28T07:44:25;101414.19;;;4.36
18713;BMP280;9485;49.386;8.674;2023-02-28T07:49:46;101408.72;;;4.48
18713;BMP280;9485;49.386;8.674;2023-02-28T07:55:09;101411.97;;;4.66
18713;BMP280;9485;49.386;8.674;2023-02-28T08:00:32;101428.78;;;4.82
18713;BMP280;9485;49.386;8.674;2023-02-28T08:05:54;101419.31;;;5.11
18713;BMP280;9485;49.386;8.674;2023-02-28T08:11:17;101418.53;;;5.58
18713;BMP280;9485;49.386;8.674;2023-02-28T08:16:39;101420.06;;;6.07
18713;BMP280;9485;49.386;8.674;2023-02-28T08:22:00;101407.69;;;6.61
18713;BMP280;9485;49.386;8.674;2023-02-28T08:27:24;101412.78;;;7.16
18713;BMP280;9485;49.386;8.674;2023-02-28T08:32:47;101405.41;;;7.80
18713;BMP280;9485;49.386;8.674;2023-02-28T08:38:09;101397.56;;;8.73
18713;BMP280;9485;49.386;8.674;2023-02-28T08:43:31;101410.34;;;9.83
18713;BMP280;9485;49.386;8.674;2023-02-28T08:48:57;101393.88;;;10.80
18713;BMP280;9485;49.386;8.674;2023-02-28T08:54:21;101383.31;;;11.86
18713;BMP280;9485;49.386;8.674;2023-02-28T08:59:43;101394.34;;;12.74
18713;BMP280;9485;49.386;8.674;2023-02-28T09:05:09;101396.69;;;13.67
18713;BMP280;9485;49.386;8.674;2023-02-28T09:10:35;101403.81;;;14.88
18713;BMP280;9485;49.386;8.674;2023-02-28T09:15:59;101410.25;;;16.22
18713;BMP280;9485;49.386;8.674;2023-02-28T09:21:26;101403.47;;;17.05
18713;BMP280;9485;49.386;8.674;2023-02-28T09:26:48;101401.25;;;18.09
18713;BMP280;9485;49.386;8.674;2023-02-28T09:32:17;101413.34;;;18.88
18713;BMP280;9485;49.386;8.674;2023-02-28T09:40:22;101410.38;;;19.69
18713;BMP280;9485;49.386;8.674;2023-02-28T09:47:38;101395.28;;;19.39
18713;BMP280;9485;49.386;8.674;2023-02-28T09:53:06;101410.97;;;18.52
18713;BMP280;9485;49.386;8.674;2023-02-28T09:58:44;101384.81;;;17.15
18713;BMP280;9485;49.386;8.674;2023-02-28T10:04:28;101407.72;;;16.35
18713;BMP280;9485;49.386;8.674;2023-02-28T10:10:18;101415.53;;;15.20
18713;BMP280;9485;49.386;8.674;2023-02-28T10:15:59;101410.53;;;14.85
18713;BMP280;9485;49.386;8.674;2023-02-28T10:21:31;101415.31;;;14.48
18713;BMP280;9485;49.386;8.674;2023-02-28T10:27:06;101404.16;;;14.95
18713;BMP280;9485;49.386;8.674;2023-02-28T10:32:36;101409.94;;;14.75
18713;BMP280;9485;49.386;8.674;2023-02-28T10:38:12;101403.59;;;13.47
18713;BMP280;9485;49.386;8.674;2023-02-28T10:43:39;101402.94;;;12.79
18713;BMP280;9485;49.386;8.674;2023-02-28T10:49:13;101390.81;;;13.71
18713;BMP280;9485;49.386;8.674;2023-02-28T10:54:40;101405.66;;;14.20
18713;BMP280;9485;49.386;8.674;2023-02-28T11:00:16;101395.88;;;14.92
18713;BMP280;9485;49.386;8.674;2023-02-28T11:05:41;101385.63;;;15.67
18713;BMP280;9485;49.386;8.674;2023-02-28T11:11:11;101384.44;;;15.89
18713;BMP280;9485;49.386;8.674;2023-02-28T11:16:36;101370.84;;;16.15
18713;BMP280;9485;49.386;8.674;2023-02-28T11:22:26;101366.56;;;16.47
18713;BMP280;9485;49.386;8.674;2023-02-28T11:27:52;101366.88;;;17.20
18713;BMP280;9485;49.386;8.674;2023-02-28T11:33:28;101371.31;;;16.99
18713;BMP280;9485;49.386;8.674;2023-02-28T11:38:49;101375.56;;;18.04
18713;BMP280;9485;49.386;8.674;2023-02-28T11:44:32;101372.53;;;18.48
18713;BMP280;9485;49.386;8.674;2023-02-28T11:50:16;101370.28;;;17.35
18713;BMP280;9485;49.386;8.674;2023-02-28T11:55:49;101361.44;;;16.89
18713;BMP280;9485;49.386;8.674;2023-02-28T12:01:31;101359.97;;;16.19
18713;BMP280;9485;49.386;8.674;2023-02-28T12:07:03;101363.22;;;17.69
18713;BMP280;9485;49.386;8.674;2023-02-28T12:12:38;101360.78;;;18.00
18713;BMP280;9485;49.386;8.674;2023-02-28T12:18:21;101350.00;;;16.62
18713;BMP280;9485;49.386;8.674;2023-02-28T12:29:58;101364.56;;;17.35
18713;BMP280;9485;49.386;8.674;2023-02-28T12:35:31;101354.94;;;16.61
18713;BMP280;9485;49.386;8.674;2023-02-28T12:41:00;101353.66;;;15.93
18713;BMP280;9485;49.386;8.674;2023-02-28T12:46:29;101359.44;;;14.96
18713;BMP280;9485;49.386;8.674;2023-02-28T12:51:52;101356.38;;;15.30
18713;BMP280;9485;49.386;8.674;2023-02-28T12:57:18;101337.81;;;15.09
18713;BMP280;9485;49.386;8.674;2023-02-28T13:03:18;101349.53;;;14.35
18713;BMP280;9485;49.386;8.674;2023-02-28T13:09:04;101352.84;;;13.68
18713;BMP280;9485;49.386;8.674;2023-02-28T13:14:29;101351.31;;;13.19
18713;BMP280;9485;49.386;8.674;2023-02-28T13:19:58;101343.66;;;13.59
18713;BMP280;9485;49.386;8.674;2023-02-28T13:25:53;101342.38;;;14.65
18713;BMP280;9485;49.386;8.674;2023-02-28T13:31:15;101338.13;;;15.47
18713;BMP280;9485;49.386;8.674;2023-02-28T13:36:37;101333.75;;;16.04
18713;BMP280;9485;49.386;8.674;2023-02-28T13:42:33;101337.16;;;16.19
18713;BMP280;9485;49.386;8.674;2023-02-28T13:48:00;101337.28;;;15.83
18713;BMP280;9485;49.386;8.674;2023-02-28T13:53:53;101345.50;;;14.98
18713;BMP280;9485;49.386;8.674;2023-02-28T13:59:39;101340.06;;;14.69
18713;BMP280;9485;49.386;8.674;2023-02-28T14:05:13;101340.06;;;14.43
18713;BMP280;9485;49.386;8.674;2023-02-28T14:10:43;101331.50;;;13.98
18713;BMP280;9485;49.386;8.674;2023-02-28T14:16:09;101338.84;;;13.85
18713;BMP280;9485;49.386;8.674;2023-02-28T14:21:35;101341.47;;;13.68
18713;BMP280;9485;49.386;8.674;2023-02-28T14:27:24;101337.69;;;13.37
18713;BMP280;9485;49.386;8.674;2023-02-28T14:33:01;101338.56;;;12.94
18713;BMP280;9485;49.386;8.674;2023-02-28T14:38:32;101346.16;;;12.74
18713;BMP280;9485;49.386;8.674;2023-02-28T14:43:57;101346.34;;;12.71
18713;BMP280;9485;49.386;8.674;2023-02-28T14:49:26;101334.44;;;12.52
18713;BMP280;9485;49.386;8.674;2023-02-28T14:54:54;101340.19;;;12.29
18713;BMP280;9485;49.386;8.674;2023-02-28T15:00:23;101334.50;;;12.14
18713;BMP280;9485;49.386;8.674;2023-02-28T15:05:55;101340.81;;;12.09
18713;BMP280;9485;49.386;8.674;2023-02-28T15:11:23;101347.28;;;12.10
18713;BMP280;9485;49.386;8.674;2023-02-28T15:16:52;101344.03;;;12.02
18713;BMP280;9485;49.386;8.674;2023-02-28T15:22:27;101339.41;;;11.91
18713;BMP280;9485;49.386;8.674;2023-02-28T15:27:53;101326.91;;;11.83
18713;BMP280;9485;49.386;8.674;2023-02-28T15:33:23;101338.59;;;11.52
18713;BMP280;9485;49.386;8.674;2023-02-28T15:38:51;101342.28;;;11.35
18713;BMP280;9485;49.386;8.674;2023-02-28T15:44:34;101343.59;;;11.25
18713;BMP280;9485;49.386;8.674;2023-02-28T15:49:59;101348.63;;;11.21
18713;BMP280;9485;49.386;8.674;2023-02-28T15:55:27;101309.50;;;10.96
18713;BMP280;9485;49.386;8.674;2023-02-28T16:01:17;101344.47;;;11.08
18713;BMP280;9485;49.386;8.674;2023-02-28T16:06:44;101353.31;;;10.92
18713;BMP280;9485;49.386;8.674;2023-02-28T16:12:09;101348.22;;;10.63
18713;BMP280;9485;49.386;8.674;2023-02-28T16:17:39;101351.28;;;10.24
18713;BMP280;9485;49.386;8.674;2023-02-28T16:23:00;101351.44;;;9.85
18713;BMP280;9485;49.386;8.674;2023-02-28T16:28:30;101353.75;;;9.68
18713;BMP280;9485;49.386;8.674;2023-02-28T16:33:52;101359.66;;;9.44
18713;BMP280;9485;49.386;8.674;2023-02-28T16:39:22;101364.28;;;9.20
18713;BMP280;9485;49.386;8.674;2023-02-28T16:44:46;101371.03;;;8.92
18713;BMP280;9485;49.386;8.674;2023-02-28T16:50:15;101366.50;;;8.64
18713;BMP280;9485;49.386;8.674;2023-02-28T16:55:39;101377.69;;;8.46
18713;BMP280;9485;49.386;8.674;2023-02-28T17:01:03;101383.19;;;8.28
18713;BMP280;9485;49.386;8.674;2023-02-28T17:06:27;101395.84;;;8.12
18713;BMP280;9485;49.386;8.674;2023-02-28T17:11:49;101393.06;;;7.99
18713;BMP280;9485;49.386;8.674;2023-02-28T17:17:18;101398.75;;;7.87
18713;BMP280;9485;49.386;8.674;2023-02-28T17:22:40;101403.81;;;7.79
18713;BMP280;9485;49.386;8.674;2023-02-28T17:28:01;101413.09;;;7.67
18713;BMP280;9485;49.386;8.674;2023-02-28T17:33:23;101402.66;;;7.55
18713;BMP280;9485;49.386;8.674;2023-02-28T17:38:44;101401.88;;;7.43
18713;BMP280;9485;49.386;8.674;2023-02-28T17:44:04;101417.72;;;7.37
18713;BMP280;9485;49.386;8.674;2023-02-28T17:49:27;101410.88;;;7.25
18713;BMP280;9485;49.386;8.674;2023-02-28T17:54:48;101419.31;;;7.13
18713;BMP280;9485;49.386;8.674;2023-02-28T18:00:12;101414.16;;;6.99
18713;BMP280;9485;49.386;8.674;2023-02-28T18:05:36;101413.09;;;6.80
18713;BMP280;9485;49.386;8.674;2023-02-28T18:10:57;101414.31;;;6.67
18713;BMP280;9485;49.386;8.674;2023-02-28T18:16:19;101412.28;;;6.55
18713;BMP280;9485;49.386;8.674;2023-02-28T18:21:46;101415.75;;;6.47
18713;BMP280;9485;49.386;8.674;2023-02-28T18:27:08;101411.31;;;6.33
18713;BMP280;9485;49.386;8.674;2023-02-28T18:32:29;101410.63;;;6.29
18713;BMP280;9485;49.386;8.674;2023-02-28T18:37:51;101412.84;;;6.22
18713;BMP280;9485;49.386;8.674;2023-02-28T18:43:13;101413.03;;;6.15
18713;BMP280;9485;49.386;8.674;2023-02-28T18:48:34;101410.00;;;6.09
18713;BMP280;9485;49.386;8.674;2023-02-28T18:53:58;101430.50;;;6.06
18713;BMP280;9485;49.386;8.674;2023-02-28T18:59:19;101412.63;;;6.00
18713;BMP280;9485;49.386;8.674;2023-02-28T19:04:40;101415.53;;;5.97
18713;BMP280;9485;49.386;8.674;2023-02-28T19:10:04;101407.91;;;5.97
18713;BMP280;9485;49.386;8.674;2023-02-28T19:15:26;101412.63;;;6.00
18713;BMP280;9485;49.386;8.674;2023-02-28T19:20:47;101403.53;;;5.96
18713;BMP280;9485;49.386;8.674;2023-02-28T19:26:12;101417.72;;;5.90
18713;BMP280;9485;49.386;8.674;2023-02-28T19:31:33;101413.22;;;5.80
18713;BMP280;9485;49.386;8.674;2023-02-28T19:36:54;101420.72;;;5.83
18713;BMP280;9485;49.386;8.674;2023-02-28T19:42:17;101424.06;;;5.78
18713;BMP280;9485;49.386;8.674;2023-02-28T19:47:38;101422.50;;;5.77
18713;BMP280;9485;49.386;8.674;2023-02-28T19:53:00;101412.91;;;5.74
18713;BMP280;9485;49.386;8.674;2023-02-28T19:58:22;101422.53;;;5.73
18713;BMP280;9485;49.386;8.674;2023-02-28T20:03:47;101425.72;;;5.75
18713;BMP280;9485;49.386;8.674;2023-02-28T20:09:09;101409.66;;;5.76
18713;BMP280;9485;49.386;8.674;2023-02-28T20:14:31;101404.91;;;5.76
18713;BMP280;9485;49.386;8.674;2023-02-28T20:19:52;101404.16;;;5.72
18713;BMP280;9485;49.386;8.674;2023-02-28T20:25:14;101406.72;;;5.67
18713;BMP280;9485;49.386;8.674;2023-02-28T20:30:37;101398.41;;;5.63
18713;BMP280;9485;49.386;8.674;2023-02-28T20:36:01;101393.41;;;5.55
18713;BMP280;9485;49.386;8.674;2023-02-28T20:41:25;101401.13;;;5.51
18713;BMP280;9485;49.386;8.674;2023-02-28T20:46:47;101400.16;;;5.41
18713;BMP280;9485;49.386;8.674;2023-02-28T20:52:08;101393.75;;;5.41
18713;BMP280;9485;49.386;8.674;2023-02-28T20:57:30;101392.22;;;5.40
18713;BMP280;9485;49.386;8.674;2023-02-28T21:24:18;101388.88;;;5.29
18713;BMP280;9485;49.386;8.674;2023-02-28T21:29:40;101387.56;;;5.33
18713;BMP280;9485;49.386;8.674;2023-02-28T21:35:01;101378.72;;;5.35
18713;BMP280;9485;49.386;8.674;2023-02-28T21:40:22;101389.81;;;5.38
18713;BMP280;9485;49.386;8.674;2023-02-28T21:45:43;101395.44;;;5.38
18713;BMP280;9485;49.386;8.674;2023-02-28T21:51:06;101390.28;;;5.37
18713;BMP280;9485;49.386;8.674;2023-02-28T21:56:31;101390.72;;;5.35
18713;BMP280;9485;49.386;8.674;2023-02-28T22:01:53;101392.28;;;5.36
18713;BMP280;9485;49.386;8.674;2023-02-28T22:07:14;101389.91;;;5.35
18713;BMP280;9485;49.386;8.674;2023-02-28T22:12:38;101393.16;;;5.33
18713;BMP280;9485;49.386;8.674;2023-02-28T22:18:00;101397.25;;;5.29
18713;BMP280;9485;49.386;8.674;2023-02-28T22:23:21;101389.47;;;5.20
18713;BMP280;9485;49.386;8.674;2023-02-28T22:28:44;101395.16;;;5.17
18713;BMP280;9485;49.386;8.674;2023-02-28T22:34:09;101385.81;;;5.08
18713;BMP280;9485;49.386;8.674;2023-02-28T22:39:30;101376.50;;;4.95
18713;BMP280;9485;49.386;8.674;2023-02-28T22:44:52;101389.88;;;4.87
18713;BMP280;9485;49.386;8.674;2023-02-28T22:50:12;101384.44;;;4.80
18713;BMP280;9485;49.386;8.674;2023-02-28T22:55:33;101382.31;;;4.68
18713;BMP280;9485;49.386;8.674;2023-02-28T23:00:55;101387.34;;;4.57
18713;BMP280;9485;49.386;8.674;2023-02-28T23:06:21;101397.75;;;4.57
18713;BMP280;9485;49.386;8.674;2023-02-28T23:11:45;101402.22;;;4.54
18713;BMP280;9485;49.386;8.674;2023-02-28T23:17:08;101411.81;;;4.53
18713;BMP280;9485;49.386;8.674;2023-02-28T23:22:29;101410.69;;;4.51
18713;BMP280;9485;49.386;8.674;2023-02-28T23:27:49;101412.66;;;4.50
18713;BMP280;9485;49.386;8.674;2023-02-28T23:33:11;101410.31;;;4.49
18713;BMP280;9485;49.386;8.674;2023-02-28T23:38:32;101413.03;;;4.52
18713;BMP280;9485;49.386;8.674;2023-02-28T23:43:53;101417.03;;;4.51
18713;BMP280;9485;49.386;8.674;2023-02-28T23:49:16;101411.59;;;4.44
18713;BMP280;9485;49.386;8.674;2023-02-28T23:54:39;101418.63;;;4.52
